Rachel, Nevada Weather observations

Data are for observation ending at time listed.
 Day   Time    Ave.   Ave.  Ave.  Vector   Max.   Stn.    Total    Solar   Ave.  
  of    of     Air    Rel.  Wind   Wind    Wind   Baro.  Precip.   Rad.    Soil  
Year   Day     Temp.  Hum.  Speed  Dir.    Gust   Pres.                    Temp. 
2015   (PST)    F      %     mph   deg.    mph     mb.     in.     W/m2     F   
------------------------------------------------------------------------------
 212   16:30   93.8    15    1.7   279      5.0   855.8    0.00     359    86.7
 212   16:40   92.5    15    5.1   339     10.0   855.8    0.00     336    86.8
 212   16:50   92.0    16    6.3   310     12.4   855.6    0.00     283    87.0
 212   17:00   91.5    16    5.1   282      8.8   855.4    0.00     286    87.0
 212   17:10   92.1    15    4.1   317      6.9   855.3    0.00     306    86.9
 212   17:20   91.7    16    2.0   135      5.9   855.2    0.00     250    87.0
 212   17:30   91.6    16    4.9   164     11.6   854.5    0.00     133    86.9
 212   17:40   90.2    17    4.5   128      9.7   853.4    0.00      91    86.9
 212   17:50   89.9    17    5.6   130      9.8   853.2    0.00      72    86.7
 212   18:00   89.6    17    8.5   155     13.5   853.0    0.00      75    86.6
 212   18:10   89.4    18   10.1   164     13.2   852.5    0.00      75    86.6
 212   18:20   89.0    18    9.1   176     13.4   852.9    0.00      46    86.5
 212   18:30   88.6    19   10.7   176     13.9   854.7    0.00      29    86.3
 212   18:40   88.1    20    8.8   174     12.6   855.3    0.00      16    86.1
 212   18:50   87.4    20    7.1   173      8.8   855.1    0.00       9    85.9
 212   19:00   86.8    21    7.7   175      9.6   855.0    0.00       4    85.6
 212   19:10   86.0    22    7.3   175      9.0   855.2    0.00       2    85.4
 212   19:20   85.5    22    7.7   172      9.1   855.3    0.00       0    85.2
 212   19:30   85.2    22    7.5   173      8.9   855.2    0.00       0    85.0
 212   19:40   84.7    23    8.1   171      9.3   855.0    0.00       0    84.8
 212   19:50   84.2    24    8.0   173      8.9   855.5    0.00       0    84.6
 212   20:00   83.1    25    7.1   164      8.2   855.6    0.00       0    84.3
 212   20:10   82.3    26    4.8   167      8.2   855.7    0.00       0    84.1
 212   20:20   82.9    25    2.2   266      7.8   855.9    0.00       0    83.9
 212   20:30   83.9    24    3.2   159      6.3   856.0    0.00       0    83.8
 212   20:40   84.2    23    4.0   167      7.7   856.0    0.00       0    83.7
 212   20:50   82.6    25    3.5   200      6.2   856.0    0.00       0    83.6
 212   21:00   81.6    26    5.5   190      8.5   856.0    0.00       0    83.4
 212   21:10   81.6    26    5.3   182      7.2   856.0    0.00       0    83.2
 212   21:20   80.4    28    4.8   151      6.8   855.9    0.00       0    83.0
 212   21:30   80.1    28    5.0   152      7.3   855.8    0.00       0    82.8
 212   21:40   79.7    29    2.0   234      4.5   855.9    0.00       0    82.6
 212   21:50   79.4    29    2.4   214      3.4   855.6    0.00       0    82.5
 212   22:00   79.7    29    8.8   157     13.6   855.4    0.00       0    82.3
 212   22:10   81.0    28   14.3   161     19.6   855.3    0.00       0    82.2
 212   22:20   81.3    30   16.3   166     21.3   855.4    0.00       0    82.1
 212   22:30   80.6    31   15.7   157     19.5   855.5    0.00       0    82.1
 212   22:40   79.9    32   15.6   157     20.2   855.5    0.00       0    81.9
 212   22:50   79.7    33   15.0   153     18.2   855.3    0.00       0    81.7
 212   23:00   79.4    33   14.0   154     18.6   855.3    0.00       0    81.6
 212   23:10   79.4    33   14.4   155     17.8   855.2    0.00       0    81.4
 212   23:20   79.2    33   12.7   154     16.2   855.0    0.00       0    81.3
 212   23:30   78.6    34   11.7   154     14.2   855.1    0.00       0    81.1
 212   23:40   77.7    35   10.2   163     13.2   855.0    0.00       0    80.9
 212   23:50   76.7    36    9.9   179     12.2   854.8    0.00       0    80.7
 213    0:00   76.5    36   10.0   188     12.6   854.5    0.00       0    80.5
 213    0:10   76.6    36    7.5   227     12.3   854.0    0.00       0    80.4
 213    0:20   77.8    34    6.6   222     10.4   854.0    0.00       0    80.3
 213    0:30   77.9    34    5.2   252      8.4   853.6    0.00       0    80.3
 213    0:40   76.0    34    4.6   315      7.9   853.5    0.00       0    80.2
 213    0:50   75.5    34    2.8   330      5.7   853.2    0.00       0    80.0
 213    1:00   75.1    36    1.9   304      5.3   849.9    0.00       0    79.8
 213    1:10   74.9    36    1.5   347      3.2   849.2    0.00       0    79.7
 213    1:20   74.5    38    2.6   347      4.2   848.8    0.00       0    79.6
 213    1:30   73.1    40    4.1    36      5.8   849.1    0.00       0    79.4
 213    1:40   71.2    41    4.6    75      6.4   848.7    0.00       0    79.0
 213    1:50   70.8    41    4.7    89      5.3   850.1    0.00       0    78.7
 213    2:00   70.9    43    3.8    96      5.3   851.0    0.00       0    78.4
 213    2:10   71.3    43    2.6   131      3.4   851.9    0.00       0    78.3
 213    2:20   70.5    45    3.1   142      4.2   853.3    0.00       0    78.2
 213    2:30   70.7    45    3.5   159      4.5   854.1    0.00       0    78.2
 213    2:40   70.6    46    4.8   153      5.6   854.1    0.00       0    78.0
 213    2:50   70.3    46    4.3   196      8.7   854.2    0.00       0    77.8
 213    3:00   68.3    42    3.9   311      6.3   854.2    0.00       0    77.6
 213    3:10   67.7    42    2.1   340      3.4   854.0    0.00       0    77.5
 213    3:20   67.7    42    0.4   251      1.9   853.9    0.00       0    77.4
 213    3:30   67.8    43    2.1   238      4.7   853.5    0.00       0    77.3
 213    3:40   67.4    45    1.5   246      2.8   854.2    0.00       0    77.1
 213    3:50   67.2    44    0.8   240      2.3   854.4    0.00       0    77.0
 213    4:00   67.1    44    0.9   224      2.2   854.4    0.00       0    76.8
 213    4:10   67.4    43    0.3   224      1.1   854.4    0.00       0    76.7
 213    4:20   67.7    41    0.1   160      2.6   854.2    0.00       0    76.5
 213    4:30   67.6    41    2.4   153      3.1   854.1    0.00       0    76.2
 213    4:40   67.5    41    1.8   154      2.1   854.1    0.00       0    76.1
 213    4:50   67.1    47    3.3   156      3.9   854.2    0.00       2    76.0
 213    5:00   66.7    50    3.3   174      4.3   854.4    0.00       3    75.8
 213    5:10   67.2    50    1.9   192      3.3   854.6    0.00       9    75.8
 213    5:20   67.4    50    0.8   197      3.1   854.7    0.00      17    75.8
 213    5:30   68.3    47    0.2   197      0.8   854.8    0.00      26    75.9
 213    5:40   68.8    49    0.0     0      0.0   854.9    0.00      32    76.0
 213    5:50   67.9    49    0.0     0      0.0   855.0    0.00      38    75.9
 213    6:00   67.3    49    1.9   276      3.4   855.1    0.00      47    75.9
 213    6:10   67.4    47    1.3   275      2.3   855.3    0.00      52    75.8
 213    6:20   67.9    46    0.5   286      2.0   855.4    0.00      58    75.8
 213    6:30   68.6    45    0.4   201      2.9   855.6    0.00      68    75.9
 213    6:40   69.3    42    2.0   152      2.8   855.8    0.00      80    75.9
 213    6:50   70.5    40    0.5   155      1.7   855.9    0.00      93    76.0
 213    7:00   71.8    38    0.1   155      1.0   856.0    0.00     106    76.2
 213    7:10   72.9    37    0.3   145      2.3   856.1    0.00     117    76.4
 213    7:20   72.5    38    4.5   110      7.3   856.3    0.00     115    76.5
 213    7:30   73.0    38    3.7   107      8.9   856.3    0.00     119    76.5
 213    7:40   73.8    37    1.8   130      5.7   856.3    0.00     131    76.7
 213    7:50   75.2    36    4.4   111     12.8   856.4    0.00     135    76.9
 213    8:00   75.2    36    3.9   101      9.9   856.5    0.00     150    77.1
 213    8:10   76.7    34    2.0   178      3.5   856.7    0.00     175    77.3
 213    8:20   77.1    34    0.8   118      3.1   856.7    0.00     202    77.6
 213    8:30   78.0    33    2.0   271      3.8   856.8    0.00     227    77.9
 213    8:40   78.6    32    1.8   131      4.8   857.0    0.00     229    78.3
 213    8:50   79.2    32    1.2   355      3.4   856.8    0.00     239    78.6
 213    9:00   79.9    32    2.9    22      4.8   856.8    0.00     253    78.9
 213    9:10   80.4    31    3.6    21      5.2   856.5    0.00     269    79.1
 213    9:20   81.1    30    2.6    42      5.3   856.1    0.00     277    79.4
 213    9:30   82.0    30    1.6    78      4.5   856.8    0.00     271    79.7
 213    9:40   82.8    29    1.7    53      3.9   857.1    0.00     308    80.1
 213    9:50   83.9    28    1.5   359      4.7   857.1    0.00     405    80.5
 213   10:00   84.7    28    3.0    45      5.6   857.3    0.00     314    81.1
 213   10:10   84.4    28    3.7    49      6.4   857.4    0.00     347    81.4
 213   10:20   84.9    27    4.2    42      6.4   857.3    0.00     350    81.6
 213   10:30   85.7    27    2.6    51      4.4   857.3    0.00     336    82.0
 213   10:40   86.5    26    2.5    52      4.6   857.3    0.00     266    82.3
 213   10:50   86.5    26    2.8    60      4.6   857.2    0.00     316    82.5
 213   11:00   86.5    26    2.6    93      7.2   857.1    0.00     342    82.7
 213   11:10   87.1    25    2.4    20      4.6   857.0    0.00     382    83.0
 213   11:20   87.4    25    3.6   129      8.7   856.8    0.00     410    83.4
 213   11:30   87.3    25    2.3   119      4.1   857.0    0.00     199    83.6
 213   11:40   87.3    24    2.4    55      5.3   857.2    0.00     120    83.6
 213   11:50   86.5    25    3.1   104      6.9   857.2    0.00      73    83.5
 213   12:00   85.7    26    4.2   130      8.7   857.0    0.00      52    83.4
 213   12:10   85.5    26    4.8   140     13.2   856.8    0.00      61    83.2
 213   12:20   83.4    26   23.1   120     31.0   856.4    0.00      62    83.0
 213   12:30   82.8    24   20.4   124     29.1   856.3    0.00      62    82.8
 213   12:40   83.0    25   16.5   127     22.0   856.1    0.00      67    82.7
 213   12:50   82.4    26   14.0   109     18.9   855.9    0.00      64    82.5
 213   13:00   83.7    25   14.1   132     18.3   855.9    0.00      52    82.5
 213   13:10   83.3    25   10.7   154     15.1   855.9    0.00      41    82.4
 213   13:20   82.5    28    9.4   157     14.0   856.0    0.00      34    82.2
 213   13:30   81.0    36   12.9   177     16.4   856.3    0.00      31    82.0
 213   13:40   77.8    44   17.7   225     31.9   856.5    0.00      20    81.6
 213   13:50   74.0    52   21.4   228     35.6   856.6    0.00      14    81.1
 213   14:00   71.8    60   17.9   222     28.1   856.2    0.00      14    80.4
 213   14:10   71.2    62   11.2   220     23.2   855.3    0.00      16    80.0
 213   14:20   72.5    58    5.4   221      8.3   853.8    0.00      23    79.7
 213   14:30   72.3    61    6.3   250      9.9   854.0    0.00      29    79.5
 213   14:40   71.4    61   10.0   260     15.4   854.3    0.00      32    79.3
 213   14:50   72.0    54   10.1   240     17.0   855.2    0.00      43    79.1
 213   15:00   72.8    51    6.1   200     11.9   855.5    0.00      54    79.0
 213   15:10   74.1    50   10.5   165     16.0   855.7    0.00      68    79.0
 213   15:20   74.4    49   13.6   180     18.2   856.0    0.00      86    78.9
 213   15:30   73.8    54   15.1   185     21.1   856.3    0.00      93    78.9
 213   15:40   73.5    58   12.6   167     19.9   856.6    0.00     105    78.8
 213   15:50   74.3    52   10.4   105     17.2   856.9    0.00     102    78.7
 213   16:00   75.4    46    8.2    83     12.4   857.0    0.00      96    78.8
 213   16:10   75.7    45    6.6    79     11.5   857.0    0.00      95    78.8
 213   16:20   75.7    43    4.1     2      9.1   856.9    0.00      82    78.8

Return to St. George, Utah graphs page.


Western Regional Climate Center,wrcc@dri.edu